Time;durP1;ratioP1;P1;durP2;ratioP2;P2;SDS_P1;SDS_P2;PMS_P1;PMS_P2;Temp;Humidity;BMP_temperature;BMP_pressure;BME280_temperature;BME280_humidity;BME280_pressure;Samples;Min_cycle;Max_cycle;Signal;HPM_P1;HPM_P2
2023/06/08 00:00:50;;;;;;;8.83;6.70;;;19.20;99.90;;;;;;5076462;28;20451;-81
2023/06/08 00:03:18;;;;;;;9.40;6.90;;;19.20;2.90;;;;;;5075697;28;20503;-80
2023/06/08 00:05:47;;;;;;;9.50;7.20;;;19.10;99.90;;;;;;5076547;28;21032;-80
2023/06/08 00:08:14;;;;;;;10.40;6.90;;;19.00;32.00;;;;;;5076114;28;20457;-81
2023/06/08 00:10:43;;;;;;;7.87;6.73;;;19.00;1.00;;;;;;5076900;28;20641;-80
2023/06/08 00:13:10;;;;;;;7.37;5.87;;;19.00;1.00;;;;;;5075872;28;20450;-79
2023/06/08 00:15:37;;;;;;;10.07;7.60;;;18.90;99.90;;;;;;5075912;28;20442;-80
2023/06/08 00:18:04;;;;;;;7.00;6.03;;;18.90;1.00;;;;;;5076639;28;20460;-79
2023/06/08 00:20:33;;;;;;;11.20;7.90;;;18.90;1.00;;;;;;5076192;28;20462;-80
2023/06/08 00:22:59;;;;;;;10.70;7.07;;;18.80;1.00;;;;;;5075264;28;20450;-79
2023/06/08 00:25:26;;;;;;;10.63;7.20;;;18.80;99.90;;;;;;5075684;28;20481;-80
2023/06/08 00:27:53;;;;;;;9.43;6.77;;;18.80;28.80;;;;;;5076679;28;20544;-80
2023/06/08 00:30:20;;;;;;;7.67;6.87;;;18.80;23.20;;;;;;5076048;28;20455;-79
2023/06/08 00:32:46;;;;;;;10.97;7.70;;;18.80;99.90;;;;;;5074900;28;20472;-80
2023/06/08 00:35:13;;;;;;;13.07;6.50;;;18.80;1.00;;;;;;5075945;28;20450;-80
2023/06/08 00:37:42;;;;;;;11.07;6.80;;;18.70;1.00;;;;;;5075862;28;20550;-79
2023/06/08 00:40:09;;;;;;;9.47;6.60;;;18.70;1.00;;;;;;5075434;28;20477;-80
2023/06/08 00:42:36;;;;;;;7.83;6.90;;;18.70;1.00;;;;;;5074699;28;20516;-79
2023/06/08 00:45:03;;;;;;;10.07;7.07;;;18.70;1.00;;;;;;5073646;28;20535;-79
2023/06/08 00:47:30;;;;;;;8.90;7.37;;;18.70;99.90;;;;;;5075474;28;20480;-80
2023/06/08 00:49:57;;;;;;;7.20;6.07;;;18.60;99.90;;;;;;5075001;28;20950;-79
2023/06/08 00:52:25;;;;;;;11.20;7.13;;;18.60;59.10;;;;;;5075515;28;20454;-78
2023/06/08 00:54:54;;;;;;;9.20;5.83;;;18.60;1.00;;;;;;5075869;28;20450;-80
2023/06/08 00:57:25;;;;;;;10.83;6.57;;;18.60;1.00;;;;;;5075044;28;20475;-79
2023/06/08 00:59:53;;;;;;;12.83;6.27;;;18.50;1.00;;;;;;5075014;28;20484;-79
2023/06/08 01:02:20;;;;;;;10.90;6.60;;;18.50;95.20;;;;;;5074962;28;20470;-80
2023/06/08 01:04:50;;;;;;;8.67;6.90;;;18.40;99.90;;;;;;5074932;28;20449;-79
2023/06/08 01:07:25;;;;;;;9.10;5.90;;;18.40;1.00;;;;;;5075522;28;20537;-79
2023/06/08 01:10:00;;;;;;;11.83;6.67;;;18.40;99.90;;;;;;5074633;28;20466;-79
2023/06/08 01:12:34;;;;;;;10.20;6.33;;;18.40;1.00;;;;;;5074372;28;20456;-79
2023/06/08 01:15:09;;;;;;;9.90;6.30;;;18.30;99.90;;;;;;5074576;28;20456;-80
2023/06/08 01:17:40;;;;;;;11.03;6.80;;;18.30;99.90;;;;;;5074876;28;20497;-79
2023/06/08 01:20:22;;;;;;;11.03;6.80;;;18.30;1.00;;;;;;5074635;28;20446;-79
2023/06/08 01:22:59;;;;;;;11.27;6.73;;;18.30;1.00;;;;;;5073921;28;20443;-79
2023/06/08 01:25:30;;;;;;;11.93;7.10;;;18.20;99.90;;;;;;5075480;28;20494;-80
2023/06/08 01:28:12;;;;;;;7.70;6.10;;;18.10;99.90;;;;;;5074768;28;20458;-80
2023/06/08 01:30:39;;;;;;;9.67;6.63;;;18.00;1.00;;;;;;5074747;28;20437;-79
2023/06/08 01:33:06;;;;;;;11.03;7.30;;;18.00;1.00;;;;;;5074112;28;20462;-79
2023/06/08 01:35:33;;;;;;;12.50;6.90;;;18.00;1.00;;;;;;5074655;28;20460;-80
2023/06/08 01:38:06;;;;;;;12.87;7.27;;;17.90;1.00;;;;;;5075301;28;20445;-79
2023/06/08 01:40:38;;;;;;;12.07;6.60;;;17.90;99.90;;;;;;5074434;28;20438;-80
2023/06/08 01:43:09;;;;;;;9.60;7.60;;;17.90;1.00;;;;;;5072635;28;20442;-80
2023/06/08 01:45:41;;;;;;;12.10;6.63;;;17.80;1.00;;;;;;5074896;28;20488;-80
2023/06/08 01:48:09;;;;;;;13.90;7.27;;;17.80;99.90;;;;;;5074977;28;20462;-80
2023/06/08 01:50:37;;;;;;;7.17;5.90;;;17.80;99.90;;;;;;5075100;28;20970;-78
2023/06/08 01:53:05;;;;;;;10.97;6.53;;;17.70;1.00;;;;;;5074809;28;20476;-79
2023/06/08 01:55:31;;;;;;;10.50;6.73;;;17.70;1.00;;;;;;5075377;28;20535;-80
2023/06/08 01:58:00;;;;;;;9.03;7.63;;;17.60;99.90;;;;;;5075463;28;20807;-79
2023/06/08 02:00:27;;;;;;;10.97;7.60;;;17.60;99.90;;;;;;5074611;28;20443;-79
2023/06/08 02:02:53;;;;;;;10.23;6.53;;;17.50;99.90;;;;;;5075443;28;20449;-79
2023/06/08 02:05:20;;;;;;;9.57;5.90;;;17.50;1.00;;;;;;5077649;28;20484;-79
2023/06/08 02:07:47;;;;;;;13.00;7.40;;;17.50;99.90;;;;;;5078225;28;20468;-79
2023/06/08 02:10:14;;;;;;;12.43;6.43;;;17.40;17.90;;;;;;5077897;28;20462;-79
2023/06/08 02:12:41;;;;;;;11.43;7.23;;;17.30;1.00;;;;;;5077404;28;20455;-79
2023/06/08 02:15:10;;;;;;;10.87;7.30;;;17.30;1.00;;;;;;5077343;28;20454;-79
2023/06/08 02:17:37;;;;;;;7.87;6.83;;;17.30;99.90;;;;;;5077739;28;20855;-79
2023/06/08 02:20:06;;;;;;;10.70;6.53;;;17.20;1.00;;;;;;5077709;28;20455;-79
2023/06/08 02:22:33;;;;;;;11.70;7.63;;;17.20;99.90;;;;;;5076581;28;20480;-79
2023/06/08 02:25:00;;;;;;;11.27;7.20;;;17.10;99.90;;;;;;5077224;28;20459;-80
2023/06/08 02:27:27;;;;;;;9.90;7.13;;;17.10;99.90;;;;;;5077767;28;20522;-79
2023/06/08 02:29:54;;;;;;;13.43;7.23;;;17.00;99.90;;;;;;5077474;28;20450;-79
2023/06/08 02:32:23;;;;;;;8.83;6.33;;;17.00;99.90;;;;;;5077285;28;20496;-79
2023/06/08 02:34:55;;;;;;;14.43;7.40;;;16.90;1.00;;;;;;5077252;28;20455;-80
2023/06/08 02:37:23;;;;;;;10.83;7.53;;;16.90;1.00;;;;;;5077251;28;20571;-81
2023/06/08 02:39:50;;;;;;;11.37;7.80;;;16.80;97.00;;;;;;5077512;28;20451;-80
2023/06/08 02:42:18;;;;;;;9.97;6.83;;;16.80;99.90;;;;;;5077276;28;20450;-79
2023/06/08 02:44:45;;;;;;;11.40;7.17;;;16.80;99.90;;;;;;5075036;28;20454;-80
2023/06/08 02:47:12;;;;;;;13.30;6.90;;;16.70;1.00;;;;;;5076858;28;20488;-79
2023/06/08 02:49:40;;;;;;;12.13;7.90;;;16.70;99.90;;;;;;5076151;28;20462;-79
2023/06/08 02:52:08;;;;;;;16.17;7.97;;;16.60;99.90;;;;;;5076820;28;20482;-80
2023/06/08 02:54:36;;;;;;;8.60;6.87;;;16.60;99.90;;;;;;5076154;28;20447;-79
2023/06/08 02:57:03;;;;;;;14.07;7.70;;;16.60;99.90;;;;;;5076345;28;20483;-77
2023/06/08 02:59:31;;;;;;;10.90;7.50;;;16.60;99.90;;;;;;5076937;28;20455;-79
2023/06/08 03:01:58;;;;;;;13.20;7.20;;;16.50;99.90;;;;;;5076892;28;21008;-80
2023/06/08 03:04:26;;;;;;;9.20;7.47;;;16.50;1.00;;;;;;5075776;28;20533;-78
2023/06/08 03:06:55;;;;;;;13.57;7.97;;;16.50;1.00;;;;;;5076398;28;20487;-80
2023/06/08 03:09:22;;;;;;;10.90;8.40;;;16.40;1.00;;;;;;5076493;28;20452;-79
2023/06/08 03:11:48;;;;;;;10.63;6.83;;;16.40;1.00;;;;;;5076386;28;20494;-79
2023/06/08 03:14:16;;;;;;;9.63;7.30;;;16.40;1.00;;;;;;5075102;28;20825;-79
2023/06/08 03:16:44;;;;;;;9.83;7.00;;;16.30;1.00;;;;;;5076867;28;20471;-79
2023/06/08 03:19:10;;;;;;;11.57;7.30;;;16.30;1.00;;;;;;5076445;28;21138;-79
2023/06/08 03:21:38;;;;;;;11.10;7.57;;;16.30;1.00;;;;;;5076495;28;20597;-79
2023/06/08 03:24:06;;;;;;;12.50;7.67;;;16.30;1.00;;;;;;5075510;28;20988;-79
2023/06/08 03:26:33;;;;;;;10.87;7.60;;;16.30;1.00;;;;;;5076053;28;20494;-79
2023/06/08 03:29:00;;;;;;;9.60;6.93;;;16.20;1.00;;;;;;5075934;28;20458;-79
2023/06/08 03:31:29;;;;;;;12.37;8.23;;;16.20;1.00;;;;;;5075549;28;20719;-78
2023/06/08 03:33:56;;;;;;;11.57;7.97;;;16.20;1.00;;;;;;5075307;28;20456;-79
2023/06/08 03:36:33;;;;;;;14.10;7.83;;;16.10;1.00;;;;;;5076130;28;20478;-78
2023/06/08 03:39:00;;;;;;;10.00;7.87;;;16.10;1.00;;;;;;5075696;28;20445;-79
2023/06/08 03:41:28;;;;;;;12.37;7.67;;;16.10;1.00;;;;;;5075972;28;20767;-79
2023/06/08 03:43:55;;;;;;;11.80;7.90;;;16.10;1.00;;;;;;5073989;28;20561;-79
2023/06/08 03:46:22;;;;;;;11.77;7.50;;;16.10;1.00;;;;;;5075403;28;20486;-78
2023/06/08 03:48:49;;;;;;;12.50;7.80;;;16.00;1.00;;;;;;5074862;28;20946;-78
2023/06/08 03:51:16;;;;;;;11.67;7.37;;;16.00;1.00;;;;;;5075388;28;20482;-79
2023/06/08 03:53:43;;;;;;;12.60;7.93;;;16.00;1.00;;;;;;5074582;28;20463;-79
2023/06/08 03:56:10;;;;;;;10.10;7.87;;;16.00;1.00;;;;;;5075065;28;20478;-79
2023/06/08 03:58:41;;;;;;;12.30;7.53;;;16.00;99.90;;;;;;5075159;28;20462;-79
2023/06/08 04:01:09;;;;;;;11.27;8.00;;;16.00;1.00;;;;;;5074480;28;20493;-79
2023/06/08 04:03:36;;;;;;;9.47;8.50;;;16.00;1.00;;;;;;5074356;28;20512;-80
2023/06/08 04:06:03;;;;;;;15.03;8.43;;;16.00;1.00;;;;;;5074452;28;21039;-79
2023/06/08 04:08:31;;;;;;;12.63;7.03;;;16.00;1.00;;;;;;5074895;28;20486;-79
2023/06/08 04:10:58;;;;;;;11.77;7.70;;;15.90;1.00;;;;;;5074977;28;20451;-79
2023/06/08 04:13:26;;;;;;;14.00;8.37;;;15.90;1.00;;;;;;5074084;28;20458;-79
2023/06/08 04:15:54;;;;;;;13.43;8.10;;;15.90;1.00;;;;;;5074724;28;20470;-79
2023/06/08 04:18:21;;;;;;;18.60;9.03;;;15.90;1.00;;;;;;5074433;28;20542;-80
2023/06/08 04:20:48;;;;;;;13.33;8.50;;;15.90;1.00;;;;;;5074675;28;20463;-79
2023/06/08 04:23:15;;;;;;;11.43;7.97;;;16.00;1.00;;;;;;5074123;28;20984;-79
2023/06/08 04:25:42;;;;;;;10.63;8.03;;;16.10;1.00;;;;;;5074345;28;20443;-79
2023/06/08 04:28:09;;;;;;;12.10;7.80;;;16.20;99.90;;;;;;5075540;28;20457;-80
2023/06/08 04:30:36;;;;;;;10.60;8.00;;;16.20;99.90;;;;;;5074962;28;20474;-79
2023/06/08 04:33:04;;;;;;;12.70;9.20;;;16.30;99.90;;;;;;5074444;28;20446;-79
2023/06/08 04:35:32;;;;;;;14.10;8.23;;;16.30;1.00;;;;;;5075128;28;20914;-81
2023/06/08 04:37:58;;;;;;;14.70;8.67;;;16.40;1.00;;;;;;5075175;28;20438;-79
2023/06/08 04:40:26;;;;;;;12.17;8.10;;;16.40;1.00;;;;;;5074497;28;20531;-80
2023/06/08 04:42:52;;;;;;;11.90;8.77;;;16.40;1.00;;;;;;5073765;28;20457;-79
2023/06/08 04:45:20;;;;;;;13.80;7.27;;;16.40;99.90;;;;;;5074096;28;20447;-80
2023/06/08 04:47:47;;;;;;;9.60;7.90;;;16.40;1.00;;;;;;5074811;28;20490;-80
2023/06/08 04:50:15;;;;;;;21.17;9.20;;;16.40;99.90;;;;;;5074785;28;20837;-79
2023/06/08 04:52:45;;;;;;;13.17;9.07;;;16.50;1.00;;;;;;5073474;28;20532;-79
2023/06/08 04:55:13;;;;;;;14.17;8.20;;;16.50;35.90;;;;;;5074809;28;20465;-80
2023/06/08 04:57:40;;;;;;;11.90;8.43;;;16.60;22.00;;;;;;5086374;22;20553;-82
2023/06/08 05:00:09;;;;;;;10.70;7.83;;;16.70;1.00;;;;;;5056076;28;20445;-81
2023/06/08 05:02:36;;;;;;;17.40;9.90;;;16.70;99.90;;;;;;5055055;28;20482;-82
2023/06/08 05:05:03;;;;;;;13.60;9.50;;;16.80;1.00;;;;;;5056000;28;20502;-80
2023/06/08 05:07:31;;;;;;;11.57;8.03;;;16.80;99.90;;;;;;5056789;28;20502;-82
2023/06/08 05:10:00;;;;;;;11.70;7.97;;;16.80;8.20;;;;;;5056862;28;20487;-80
2023/06/08 05:12:27;;;;;;;13.47;8.77;;;16.90;99.90;;;;;;5055775;28;20516;-81
2023/06/08 05:14:54;;;;;;;11.93;8.43;;;16.90;34.70;;;;;;5059082;28;20452;-78
2023/06/08 05:17:22;;;;;;;12.37;8.20;;;17.00;99.90;;;;;;5069579;28;20482;-79
2023/06/08 05:19:51;;;;;;;13.13;7.93;;;17.10;99.90;;;;;;5055401;28;20447;-78
2023/06/08 05:22:18;;;;;;;14.13;8.57;;;17.10;99.90;;;;;;5055611;28;20453;-80
2023/06/08 05:24:46;;;;;;;11.47;8.57;;;17.10;99.90;;;;;;5055623;28;20963;-80
2023/06/08 05:27:12;;;;;;;10.17;7.87;;;17.10;1.00;;;;;;5055180;28;20504;-81
2023/06/08 05:29:39;;;;;;;14.07;8.23;;;17.10;14.10;;;;;;5055511;28;20451;-82
2023/06/08 05:32:08;;;;;;;9.47;7.67;;;17.20;1.00;;;;;;5054860;28;20544;-80
2023/06/08 05:34:34;;;;;;;14.90;9.50;;;17.20;99.90;;;;;;5054208;28;21004;-81
2023/06/08 05:37:01;;;;;;;12.50;8.03;;;17.20;99.90;;;;;;5056019;28;20481;-82
2023/06/08 05:39:28;;;;;;;13.90;7.90;;;17.20;1.00;;;;;;5059161;28;20459;-82
2023/06/08 05:41:56;;;;;;;11.60;8.67;;;17.30;1.00;;;;;;5058924;28;20885;-82
2023/06/08 05:44:23;;;;;;;11.60;8.60;;;17.30;99.90;;;;;;5056320;28;20444;-81
2023/06/08 05:46:50;;;;;;;13.50;8.90;;;17.40;99.90;;;;;;5058362;28;20492;-82
2023/06/08 05:49:16;;;;;;;14.77;8.40;;;17.40;55.50;;;;;;5059455;28;20463;-82
2023/06/08 05:51:43;;;;;;;14.40;8.90;;;17.40;99.90;;;;;;5060271;28;20527;-82
2023/06/08 05:54:10;;;;;;;12.33;8.87;;;17.50;1.00;;;;;;5059211;28;20489;-82
2023/06/08 05:56:37;;;;;;;13.30;8.90;;;17.60;99.90;;;;;;5059796;28;20490;-81
2023/06/08 05:59:05;;;;;;;10.10;8.60;;;17.70;1.00;;;;;;5059463;28;20453;-82
2023/06/08 06:01:32;;;;;;;10.50;8.30;;;17.80;1.00;;;;;;5059871;28;20544;-82
2023/06/08 06:03:59;;;;;;;18.37;9.20;;;17.90;99.90;;;;;;5058876;28;20463;-82
2023/06/08 06:06:25;;;;;;;10.47;8.53;;;17.90;99.90;;;;;;5059560;28;20500;-82
2023/06/08 06:08:52;;;;;;;15.37;9.17;;;18.10;99.90;;;;;;5060200;28;20481;-82
2023/06/08 06:11:19;;;;;;;13.53;8.70;;;18.20;99.90;;;;;;5060023;28;20463;-82
2023/06/08 06:13:46;;;;;;;11.57;8.70;;;18.30;99.90;;;;;;5059005;28;20892;-80
2023/06/08 06:16:14;;;;;;;14.00;8.90;;;18.50;1.00;;;;;;5059190;28;20842;-82
2023/06/08 06:18:43;;;;;;;13.50;8.70;;;18.70;99.90;;;;;;5060125;28;20529;-82
2023/06/08 06:21:10;;;;;;;14.40;8.70;;;18.80;99.90;;;;;;5059426;28;20888;-82
2023/06/08 06:23:36;;;;;;;10.10;8.37;;;18.90;99.90;;;;;;5059212;28;20468;-82
2023/06/08 06:26:03;;;;;;;12.33;8.70;;;19.00;99.90;;;;;;5059711;28;20460;-82
2023/06/08 06:28:30;;;;;;;14.40;9.10;;;19.20;1.00;;;;;;5059820;28;20559;-80
2023/06/08 06:30:57;;;;;;;9.63;8.07;;;19.20;1.00;;;;;;5058735;28;20631;-82
2023/06/08 06:33:25;;;;;;;9.57;8.07;;;19.30;1.00;;;;;;5057803;28;21024;-82
2023/06/08 06:35:53;;;;;;;9.67;8.67;;;19.30;1.00;;;;;;5058352;28;20540;-82
2023/06/08 06:38:20;;;;;;;10.97;8.90;;;19.30;1.00;;;;;;5058264;28;20486;-82
2023/06/08 06:40:50;;;;;;;12.67;7.80;;;19.30;1.00;;;;;;5058295;28;20474;-81
2023/06/08 06:43:17;;;;;;;13.13;9.50;;;19.30;1.00;;;;;;5055625;28;20466;-82
2023/06/08 06:45:44;;;;;;;12.37;9.00;;;19.40;1.00;;;;;;5058512;28;20442;-81
2023/06/08 06:48:11;;;;;;;12.10;8.40;;;19.50;1.00;;;;;;5057347;28;20484;-81
2023/06/08 06:50:39;;;;;;;11.70;8.50;;;19.50;1.00;;;;;;5058021;28;20454;-80
2023/06/08 06:53:06;;;;;;;14.50;8.70;;;19.60;1.00;;;;;;5057944;28;20459;-81
2023/06/08 06:55:34;;;;;;;16.60;9.70;;;19.70;1.00;;;;;;5057628;28;20444;-80
2023/06/08 06:58:02;;;;;;;10.80;8.53;;;19.80;1.00;;;;;;5057544;28;20529;-79
2023/06/08 07:00:32;;;;;;;13.10;8.70;;;19.90;99.90;;;;;;5060008;28;20452;-80
2023/06/08 07:02:58;;;;;;;13.67;8.23;;;20.00;99.90;;;;;;5060194;28;20486;-80
2023/06/08 07:05:25;;;;;;;11.40;8.57;;;20.00;99.90;;;;;;5058779;28;20904;-81
2023/06/08 07:07:53;;;;;;;12.50;8.30;;;20.00;99.90;;;;;;5058666;28;20491;-82
2023/06/08 07:10:20;;;;;;;13.13;8.60;;;20.00;99.90;;;;;;5059285;28;20562;-81
2023/06/08 07:12:47;;;;;;;10.83;7.43;;;20.00;99.90;;;;;;5057967;28;20456;-82
2023/06/08 07:15:14;;;;;;;12.07;9.23;;;19.90;99.90;;;;;;5058610;28;20523;-81
2023/06/08 07:17:42;;;;;;;13.13;8.40;;;19.90;99.90;;;;;;5059347;28;20498;-82
2023/06/08 07:20:09;;;;;;;12.70;9.13;;;19.80;99.90;;;;;;5064463;28;20956;-82
2023/06/08 07:22:36;;;;;;;17.47;9.17;;;19.80;99.90;;;;;;5059653;28;20452;-81
2023/06/08 07:25:06;;;;;;;11.80;9.00;;;19.80;99.90;;;;;;5068024;28;20452;-81
2023/06/08 07:27:33;;;;;;;16.40;9.10;;;19.80;1.00;;;;;;5070789;28;20495;-81
2023/06/08 07:30:00;;;;;;;13.73;8.77;;;19.90;96.40;;;;;;5056947;28;20521;-81
2023/06/08 07:32:28;;;;;;;10.43;7.93;;;20.00;1.00;;;;;;5057139;28;20456;-80
2023/06/08 07:34:55;;;;;;;15.90;9.47;;;20.10;1.00;;;;;;5058713;28;20458;-81
2023/06/08 07:37:21;;;;;;;12.80;9.30;;;20.30;1.00;;;;;;5057990;28;21042;-82
2023/06/08 07:39:48;;;;;;;18.33;10.40;;;20.40;99.90;;;;;;5057558;28;20459;-81
2023/06/08 07:42:16;;;;;;;11.47;8.63;;;20.60;99.90;;;;;;5058019;28;20976;-80
2023/06/08 07:44:43;;;;;;;11.80;10.07;;;20.70;99.90;;;;;;5056117;28;20854;-80
2023/06/08 07:47:10;;;;;;;13.47;8.90;;;20.90;99.90;;;;;;5057373;28;20483;-82
2023/06/08 07:49:37;;;;;;;14.53;9.37;;;21.00;42.00;;;;;;5058995;28;20535;-81
2023/06/08 07:52:04;;;;;;;12.90;8.73;;;21.10;47.40;;;;;;5056908;28;20447;-81
2023/06/08 07:54:31;;;;;;;12.53;8.70;;;21.20;1.00;;;;;;5058591;28;20458;-82
2023/06/08 07:56:57;;;;;;;12.03;8.70;;;21.20;1.00;;;;;;5058977;28;20574;-82
2023/06/08 07:59:26;;;;;;;11.33;8.73;;;21.20;1.00;;;;;;5057908;28;20456;-80
2023/06/08 08:01:53;;;;;;;11.83;8.57;;;21.20;1.00;;;;;;5056906;28;20460;-80
2023/06/08 08:04:20;;;;;;;11.30;8.53;;;21.30;99.90;;;;;;5055523;28;20517;-80
2023/06/08 08:06:47;;;;;;;13.77;9.10;;;21.30;99.90;;;;;;5056504;28;20464;-80
2023/06/08 08:09:14;;;;;;;13.90;8.03;;;21.40;99.90;;;;;;5057788;28;20614;-81
2023/06/08 08:11:40;;;;;;;12.23;7.60;;;21.60;99.90;;;;;;5057217;28;20893;-81
2023/06/08 08:14:09;;;;;;;12.10;8.90;;;21.90;99.90;;;;;;5056077;28;20462;-80
2023/06/08 08:16:37;;;;;;;12.50;8.90;;;22.20;99.90;;;;;;5055759;28;20482;-81
2023/06/08 08:19:05;;;;;;;13.40;8.63;;;22.40;99.90;;;;;;5057351;28;20448;-81
2023/06/08 08:21:32;;;;;;;14.57;10.33;;;22.50;99.90;;;;;;5056979;28;20495;-81
2023/06/08 08:23:58;;;;;;;12.53;9.33;;;22.60;99.90;;;;;;5056877;28;20456;-81
2023/06/08 08:26:25;;;;;;;13.83;9.30;;;22.50;99.90;;;;;;5056910;28;20853;-80
2023/06/08 08:28:52;;;;;;;10.17;8.70;;;22.50;99.90;;;;;;5056954;28;20494;-80
2023/06/08 08:31:19;;;;;;;14.33;9.63;;;22.50;99.90;;;;;;5056469;28;20539;-81
2023/06/08 08:33:47;;;;;;;12.63;9.67;;;22.60;99.90;;;;;;5056272;28;20479;-80
2023/06/08 08:36:14;;;;;;;13.93;9.10;;;22.60;99.90;;;;;;5057418;28;20466;-81
2023/06/08 08:38:40;;;;;;;19.53;9.63;;;22.80;99.90;;;;;;5058138;28;20561;-80
2023/06/08 08:41:11;;;;;;;12.53;9.17;;;22.90;99.90;;;;;;5056945;28;20452;-80
2023/06/08 08:43:49;;;;;;;9.77;8.00;;;23.10;99.90;;;;;;5053684;28;20487;-80
2023/06/08 08:46:17;;;;;;;12.17;7.93;;;23.30;99.90;;;;;;5055988;28;20427;-80
2023/06/08 08:48:48;;;;;;;12.40;9.07;;;23.60;99.90;;;;;;5055294;28;20492;-80
2023/06/08 08:51:19;;;;;;;15.23;9.10;;;23.80;58.90;;;;;;5055645;28;20900;-82
2023/06/08 08:53:48;;;;;;;11.50;7.93;;;24.00;50.40;;;;;;5055384;28;20920;-82
2023/06/08 08:56:19;;;;;;;10.57;7.90;;;24.20;17.30;;;;;;5055827;28;20456;-81
2023/06/08 08:58:48;;;;;;;11.90;8.80;;;24.50;13.60;;;;;;5056214;28;20491;-81
2023/06/08 09:01:16;;;;;;;10.47;8.20;;;24.70;1.00;;;;;;5057062;28;20815;-82
2023/06/08 09:03:42;;;;;;;12.50;8.87;;;24.70;1.00;;;;;;5056203;28;20451;-82
2023/06/08 09:06:11;;;;;;;14.43;9.30;;;24.80;1.00;;;;;;5057256;28;20458;-81
2023/06/08 09:08:38;;;;;;;11.30;9.03;;;24.80;1.00;;;;;;5057558;28;20488;-82
2023/06/08 09:11:06;;;;;;;12.97;8.40;;;24.90;1.00;;;;;;5056100;28;20507;-80
2023/06/08 09:13:34;;;;;;;12.13;7.53;;;24.90;1.00;;;;;;5055634;28;20821;-81
2023/06/08 09:16:11;;;;;;;11.63;8.30;;;25.00;1.00;;;;;;5056467;28;20498;-81
2023/06/08 09:18:38;;;;;;;11.20;8.20;;;24.80;1.00;;;;;;5057234;28;20452;-82
2023/06/08 09:21:23;;;;;;;9.73;8.23;;;24.80;1.00;;;;;;5058000;28;20448;-80
2023/06/08 09:24:07;;;;;;;13.20;7.50;;;24.90;1.00;;;;;;5056230;28;20512;-80
2023/06/08 09:26:36;;;;;;;9.10;7.80;;;25.10;1.00;;;;;;5057360;28;20526;-82
2023/06/08 09:29:05;;;;;;;10.70;8.43;;;25.30;1.00;;;;;;5056791;28;20484;-80
2023/06/08 09:31:32;;;;;;;12.00;9.60;;;25.50;1.00;;;;;;5057581;28;20546;-80
2023/06/08 09:34:07;;;;;;;10.60;8.80;;;25.70;1.00;;;;;;5063060;28;20515;-79
2023/06/08 09:36:38;;;;;;;10.90;8.20;;;25.90;1.00;;;;;;5067038;28;20478;-81
2023/06/08 09:39:07;;;;;;;10.77;8.40;;;26.00;1.00;;;;;;5056271;28;20454;-81
2023/06/08 09:41:34;;;;;;;10.33;8.33;;;26.20;1.00;;;;;;5055983;28;20448;-81
2023/06/08 09:44:01;;;;;;;11.23;8.43;;;26.30;1.00;;;;;;5053674;28;20511;-80
2023/06/08 09:46:36;;;;;;;12.87;7.93;;;26.40;1.00;;;;;;5056080;28;20835;-81
2023/06/08 09:49:07;;;;;;;9.60;8.37;;;26.60;1.00;;;;;;5055092;28;20540;-81
2023/06/08 09:51:37;;;;;;;12.00;9.00;;;26.50;1.00;;;;;;5055337;28;20432;-82
2023/06/08 09:54:05;;;;;;;11.43;9.10;;;26.70;1.00;;;;;;5054118;28;20452;-81
2023/06/08 09:56:34;;;;;;;12.90;9.20;;;26.70;1.00;;;;;;5054905;28;20551;-80
2023/06/08 09:59:06;;;;;;;10.10;8.10;;;26.80;1.00;;;;;;5054999;28;20944;-82
2023/06/08 10:01:38;;;;;;;10.97;8.30;;;26.80;1.00;;;;;;5055633;28;20869;-81
2023/06/08 10:04:20;;;;;;;10.07;8.70;;;27.00;1.00;;;;;;5054521;28;21039;-81
2023/06/08 10:06:51;;;;;;;13.97;9.20;;;27.10;1.00;;;;;;5055915;28;20810;-81
2023/06/08 10:09:23;;;;;;;13.20;9.50;;;27.20;1.00;;;;;;5054875;28;20516;-81
2023/06/08 10:11:51;;;;;;;11.07;8.30;;;27.40;1.00;;;;;;5055444;28;20468;-81
2023/06/08 10:14:18;;;;;;;14.27;9.27;;;27.60;1.00;;;;;;5054498;28;20483;-81
2023/06/08 10:16:48;;;;;;;13.43;9.90;;;27.70;1.00;;;;;;5055538;28;20474;-82
2023/06/08 10:19:15;;;;;;;11.20;8.27;;;27.90;1.00;;;;;;5055944;28;20448;-81
2023/06/08 10:21:43;;;;;;;12.53;8.97;;;28.00;1.00;;;;;;5054880;28;21083;-81
2023/06/08 10:24:12;;;;;;;10.90;8.33;;;28.00;1.00;;;;;;5056269;28;20487;-82
2023/06/08 10:26:38;;;;;;;10.60;8.03;;;28.10;1.00;;;;;;5058187;28;20471;-81
2023/06/08 10:29:08;;;;;;;11.40;8.53;;;28.30;1.00;;;;;;5057960;28;20501;-83
2023/06/08 10:31:37;;;;;;;10.70;8.67;;;28.30;1.00;;;;;;5057987;28;20456;-82
2023/06/08 10:34:10;;;;;;;11.07;8.17;;;28.40;1.00;;;;;;5056864;28;20452;-82
2023/06/08 10:36:39;;;;;;;8.33;7.40;;;28.40;1.00;;;;;;5058155;28;20502;-83
2023/06/08 10:39:10;;;;;;;9.13;8.23;;;28.70;1.00;;;;;;5058628;28;21026;-82
2023/06/08 10:41:43;;;;;;;8.57;7.40;;;28.70;1.00;;;;;;5058489;28;20458;-82
2023/06/08 10:44:31;;;;;;;12.37;7.87;;;28.90;1.00;;;;;;5057851;28;20448;-83
2023/06/08 10:47:04;;;;;;;8.70;7.70;;;29.00;1.00;;;;;;5058056;28;20902;-84
2023/06/08 10:49:32;;;;;;;10.13;7.10;;;29.20;1.00;;;;;;5058263;28;20491;-83
2023/06/08 10:52:00;;;;;;;11.07;7.83;;;29.40;1.00;;;;;;5057205;28;20458;-82
2023/06/08 10:54:27;;;;;;;12.00;7.43;;;29.50;1.00;;;;;;5056953;28;20943;-81
2023/06/08 10:56:59;;;;;;;11.33;6.83;;;29.60;1.00;;;;;;5083780;22;20483;-80
2023/06/08 10:59:32;;;;;;;10.30;7.30;;;29.60;1.00;;;;;;5058771;28;20456;-82
2023/06/08 11:02:02;;;;;;;6.83;6.07;;;29.60;1.00;;;;;;5061857;28;20433;-82
2023/06/08 11:04:30;;;;;;;9.20;6.93;;;29.80;1.00;;;;;;5056912;28;20452;-82
2023/06/08 11:07:00;;;;;;;7.67;6.77;;;30.10;1.00;;;;;;5056747;28;20452;-82
2023/06/08 11:09:31;;;;;;;8.43;6.40;;;30.20;1.00;;;;;;5058158;28;20831;-83
2023/06/08 11:11:59;;;;;;;13.53;6.50;;;30.30;1.00;;;;;;5059355;28;20956;-82
2023/06/08 11:14:26;;;;;;;7.80;6.23;;;30.40;1.00;;;;;;5055492;28;20509;-82
2023/06/08 11:16:54;;;;;;;7.20;5.93;;;30.60;1.00;;;;;;5056784;28;20456;-82
2023/06/08 11:19:22;;;;;;;6.97;6.27;;;30.70;1.00;;;;;;5056852;28;20932;-82
2023/06/08 11:21:51;;;;;;;10.10;6.87;;;31.00;1.00;;;;;;5056893;28;20447;-82
2023/06/08 11:24:18;;;;;;;10.23;7.30;;;31.10;1.00;;;;;;5056314;28;20491;-82
2023/06/08 11:26:46;;;;;;;7.90;6.33;;;31.20;99.90;;;;;;5057035;28;21443;-84
2023/06/08 11:29:14;;;;;;;6.90;6.20;;;31.30;99.90;;;;;;5056757;28;20495;-82
2023/06/08 11:31:41;;;;;;;8.90;6.60;;;31.60;99.90;;;;;;5056610;28;20534;-82
2023/06/08 11:34:13;;;;;;;7.77;5.70;;;31.80;99.90;;;;;;5055252;28;20448;-83
2023/06/08 11:36:42;;;;;;;7.40;5.50;;;32.00;99.90;;;;;;5056540;28;20440;-84
2023/06/08 11:39:10;;;;;;;11.70;5.93;;;32.20;99.90;;;;;;5055948;28;20479;-84
2023/06/08 11:41:37;;;;;;;6.50;5.77;;;32.30;99.90;;;;;;5056396;28;20812;-83
2023/06/08 11:44:04;;;;;;;8.40;5.73;;;32.30;99.90;;;;;;5055604;28;20486;-83
2023/06/08 11:46:33;;;;;;;6.00;5.40;;;32.50;99.90;;;;;;5056858;28;20838;-83
2023/06/08 11:49:10;;;;;;;7.07;6.37;;;32.70;99.90;;;;;;5057671;28;20495;-83
2023/06/08 11:51:46;;;;;;;7.23;5.83;;;32.90;99.90;;;;;;5057117;28;20455;-84
2023/06/08 11:54:13;;;;;;;9.60;5.83;;;33.20;99.90;;;;;;5056437;28;20517;-83
2023/06/08 11:56:41;;;;;;;6.97;5.90;;;33.10;99.90;;;;;;5055808;28;20456;-82
2023/06/08 11:59:08;;;;;;;6.23;5.40;;;33.30;99.90;;;;;;5064652;28;20484;-83
2023/06/08 12:01:37;;;;;;;5.33;4.83;;;33.50;99.90;;;;;;5059017;28;20936;-83
2023/06/08 12:04:13;;;;;;;5.90;5.30;;;33.80;99.90;;;;;;5057781;28;20460;-82
2023/06/08 12:06:40;;;;;;;8.03;5.40;;;34.10;99.90;;;;;;5056642;28;20440;-83
2023/06/08 12:09:08;;;;;;;6.40;5.70;;;34.40;99.90;;;;;;5057087;28;20527;-82
2023/06/08 12:11:36;;;;;;;6.37;5.77;;;34.50;99.90;;;;;;5057410;28;20452;-83
2023/06/08 12:14:05;;;;;;;7.27;5.40;;;34.80;99.90;;;;;;5056748;28;20432;-83
2023/06/08 12:16:44;;;;;;;7.47;5.33;;;34.60;99.90;;;;;;5056147;28;20456;-83
2023/06/08 12:19:11;;;;;;;6.30;5.23;;;35.30;99.90;;;;;;5056098;28;20483;-83
2023/06/08 12:21:41;;;;;;;5.73;5.23;;;35.60;99.90;;;;;;5055770;28;20443;-83
2023/06/08 12:24:08;;;;;;;7.33;5.50;;;35.90;99.90;;;;;;5056323;28;20456;-83
2023/06/08 12:26:34;;;;;;;6.40;5.70;;;36.50;99.90;;;;;;5056691;28;20455;-83
2023/06/08 12:29:05;;;;;;;8.60;5.80;;;37.00;99.90;;;;;;5057023;28;20490;-84
2023/06/08 12:31:32;;;;;;;7.00;5.07;;;37.10;99.90;;;;;;5056985;28;20439;-83
2023/06/08 12:34:00;;;;;;;5.80;5.30;;;37.40;99.90;;;;;;5055848;28;20483;-83
2023/06/08 12:36:27;;;;;;;6.20;5.13;;;37.80;99.90;;;;;;5064879;28;20470;-82
2023/06/08 12:38:55;;;;;;;5.87;5.37;;;38.20;99.90;;;;;;5067157;28;20474;-82
2023/06/08 12:41:22;;;;;;;6.73;4.57;;;38.30;99.90;;;;;;5066331;28;20451;-83
2023/06/08 12:43:50;;;;;;;6.40;5.20;;;38.40;99.90;;;;;;5063396;28;20487;-83
2023/06/08 12:46:19;;;;;;;6.67;4.73;;;37.90;99.90;;;;;;5065799;28;20455;-82
2023/06/08 12:48:48;;;;;;;6.23;4.60;;;37.40;99.90;;;;;;5066759;28;20487;-83
2023/06/08 12:51:16;;;;;;;5.27;4.77;;;37.30;99.90;;;;;;5066671;28;20447;-82